createdAt,value
2022-08-05T00:02:24.675Z,101408.72
2022-08-05T00:04:55.604Z,101396.78
2022-08-05T00:07:59.762Z,101385.44
2022-08-05T00:10:12.633Z,101381.97
2022-08-05T00:12:55.932Z,101398.94
2022-08-05T00:15:55.374Z,101406.38
2022-08-05T00:18:21.655Z,101406.78
2022-08-05T00:20:50.832Z,101401.19
2022-08-05T00:23:44.548Z,101398.94
2022-08-05T00:26:07.870Z,101392.34
2022-08-05T00:28:36.740Z,101391.94
2022-08-05T00:31:05.021Z,101384.75
2022-08-05T00:34:53.818Z,101391.88
2022-08-05T00:37:10.726Z,101390.34
2022-08-05T00:39:14.275Z,101387.56
2022-08-05T00:41:55.345Z,101383.75
2022-08-05T00:44:30.802Z,101379.28
2022-08-05T00:47:04.271Z,101372.00
2022-08-05T00:49:44.446Z,101365.28
2022-08-05T00:52:28.110Z,101368.34
2022-08-05T00:54:56.859Z,101368.91
2022-08-05T00:57:38.105Z,101375.34
2022-08-05T01:00:11.205Z,101379.56
2022-08-05T01:02:41.355Z,101386.16
2022-08-05T01:05:12.877Z,101394.72
2022-08-05T01:08:29.909Z,101392.44
2022-08-05T01:10:36.555Z,101395.69
2022-08-05T01:13:13.133Z,101391.91
2022-08-05T01:15:54.721Z,101389.78
2022-08-05T01:18:27.517Z,101377.59
2022-08-05T01:21:02.572Z,101381.53
2022-08-05T01:23:42.630Z,101372.00
2022-08-05T01:26:30.991Z,101384.16
2022-08-05T01:29:05.306Z,101392.28
2022-08-05T01:31:44.682Z,101392.44
2022-08-05T01:34:17.952Z,101395.94
2022-08-05T01:36:47.872Z,101404.63
2022-08-05T01:39:46.487Z,101408.56
2022-08-05T01:42:09.771Z,101410.94
2022-08-05T01:44:40.858Z,101411.66
2022-08-05T01:47:11.316Z,101409.00
2022-08-05T01:50:00.235Z,101410.13
2022-08-05T01:52:31.310Z,101400.56
2022-08-05T01:55:04.364Z,101409.53
2022-08-05T01:58:18.775Z,101413.19
2022-08-05T02:00:30.253Z,101430.72
2022-08-05T02:03:03.660Z,101437.13
2022-08-05T02:05:35.982Z,101420.91
2022-08-05T02:08:05.023Z,101416.56
2022-08-05T02:10:38.635Z,101420.47
2022-08-05T02:13:16.076Z,101423.56
2022-08-05T02:15:51.115Z,101424.97
2022-08-05T02:18:35.142Z,101438.81
2022-08-05T02:21:14.747Z,101449.38
2022-08-05T02:23:48.600Z,101451.16
2022-08-05T02:26:21.916Z,101456.78
2022-08-05T02:28:51.202Z,101455.38
2022-08-05T02:31:24.878Z,101455.25
2022-08-05T02:33:58.085Z,101446.13
2022-08-05T02:36:31.442Z,101433.41
2022-08-05T02:39:02.941Z,101433.66
2022-08-05T02:41:43.245Z,101420.91
2022-08-05T02:44:22.879Z,101415.97
2022-08-05T02:46:59.999Z,101420.03
2022-08-05T02:49:36.411Z,101411.34
2022-08-05T02:52:08.785Z,101410.38
2022-08-05T02:54:41.668Z,101418.38
2022-08-05T02:58:19.641Z,101412.03
2022-08-05T03:00:01.509Z,101398.44
2022-08-05T03:02:35.640Z,101398.44
2022-08-05T03:05:04.831Z,101401.38
2022-08-05T03:08:00.372Z,101401.38
2022-08-05T03:10:25.175Z,101430.50
2022-08-05T03:12:54.284Z,101436.81
2022-08-05T03:15:24.347Z,101431.78
2022-08-05T03:17:55.634Z,101420.59
2022-08-05T03:20:24.726Z,101406.72
2022-08-05T03:22:57.282Z,101419.06
2022-08-05T03:25:32.588Z,101432.22
2022-08-05T03:28:18.773Z,101422.00
2022-08-05T03:30:49.497Z,101427.78
2022-08-05T03:33:20.442Z,101425.22
2022-08-05T03:35:50.365Z,101423.94
2022-08-05T03:38:32.586Z,101419.75
2022-08-05T03:41:08.396Z,101411.88
2022-08-05T03:44:09.364Z,101400.56
2022-08-05T03:46:29.687Z,101393.56
2022-08-05T03:49:02.117Z,101386.13
2022-08-05T03:52:36.629Z,101389.19
2022-08-05T03:55:53.870Z,101386.81
2022-08-05T03:57:41.341Z,101401.38
2022-08-05T04:00:12.642Z,101395.06
2022-08-05T04:02:57.914Z,101399.69
2022-08-05T04:05:34.456Z,101420.44
2022-08-05T04:08:29.921Z,101416.75
2022-08-05T04:10:57.427Z,101415.66
2022-08-05T04:13:26.123Z,101412.63
2022-08-05T04:16:14.942Z,101411.63
2022-08-05T04:18:42.996Z,101415.97
2022-08-05T04:22:09.623Z,101407.44
2022-08-05T04:24:09.100Z,101403.34
2022-08-05T04:26:47.007Z,101391.31
2022-08-05T04:29:15.021Z,101383.56
2022-08-05T04:31:43.123Z,101378.94
2022-08-05T04:34:31.205Z,101380.34
2022-08-05T04:37:00.992Z,101392.34
2022-08-05T04:39:32.126Z,101392.91
2022-08-05T04:42:00.546Z,101391.66
2022-08-05T04:44:31.635Z,101399.97
2022-08-05T04:46:59.789Z,101416.44
2022-08-05T04:49:38.348Z,101431.06
2022-08-05T04:52:08.980Z,101438.63
2022-08-05T04:54:37.015Z,101442.84
2022-08-05T04:57:05.416Z,101449.72
2022-08-05T04:59:39.131Z,101444.22
2022-08-05T05:02:37.629Z,101450.38
2022-08-05T05:05:02.728Z,101446.47
2022-08-05T05:07:35.642Z,101444.56
2022-08-05T05:10:06.519Z,101446.25
2022-08-05T05:12:36.698Z,101457.16
2022-08-05T05:15:10.938Z,101456.63
2022-08-05T05:17:56.335Z,101462.50
2022-08-05T05:20:28.537Z,101457.28
2022-08-05T05:22:58.981Z,101451.44
2022-08-05T05:25:32.598Z,101449.03
2022-08-05T05:28:08.774Z,101452.41
2022-08-05T05:30:38.090Z,101449.03
2022-08-05T05:33:14.015Z,101448.94
2022-08-05T05:35:45.555Z,101448.50
2022-08-05T05:38:35.024Z,101447.69
2022-08-05T05:41:03.137Z,101455.53
2022-08-05T05:43:58.619Z,101452.59
2022-08-05T05:46:19.156Z,101452.88
2022-08-05T05:48:49.956Z,101452.19
2022-08-05T05:51:23.337Z,101451.91
2022-08-05T05:53:58.743Z,101448.53
2022-08-05T05:56:34.379Z,101438.44
2022-08-05T05:59:05.257Z,101443.59
2022-08-05T06:01:37.551Z,101444.84
2022-08-05T06:04:11.709Z,101448.94
2022-08-05T06:06:42.666Z,101458.03
2022-08-05T06:09:17.693Z,101451.59
2022-08-05T06:12:02.117Z,101465.88
2022-08-05T06:14:31.537Z,101467.44
2022-08-05T06:17:02.029Z,101468.84
2022-08-05T06:19:57.114Z,101482.75
2022-08-05T06:22:29.303Z,101484.00
2022-08-05T06:24:58.948Z,101470.25
2022-08-05T06:28:09.008Z,101473.88
2022-08-05T06:30:20.087Z,101468.03
2022-08-05T06:32:50.745Z,101483.31
2022-08-05T06:36:04.234Z,101494.53
2022-08-05T06:38:11.228Z,101493.13
2022-08-05T06:40:42.059Z,101486.97
2022-08-05T06:43:57.221Z,101484.31
2022-08-05T06:46:03.789Z,101490.31
2022-08-05T06:48:52.683Z,101483.44
2022-08-05T06:51:30.263Z,101486.25
2022-08-05T06:53:59.984Z,101485.00
2022-08-05T06:56:30.126Z,101498.25
2022-08-05T06:59:01.667Z,101493.00
2022-08-05T07:01:32.239Z,101492.06
2022-08-05T07:04:03.187Z,101493.75
2022-08-05T07:06:32.008Z,101503.00
2022-08-05T07:09:04.082Z,101504.56
2022-08-05T07:11:36.757Z,101509.75
2022-08-05T07:14:29.395Z,101508.34
2022-08-05T07:18:08.591Z,101511.03
2022-08-05T07:22:38.861Z,101517.34
2022-08-05T07:25:22.718Z,101528.28
2022-08-05T07:28:04.244Z,101527.00
2022-08-05T07:30:38.806Z,101536.28
2022-08-05T07:33:10.685Z,101542.88
2022-08-05T07:36:03.257Z,101547.50
2022-08-05T07:38:42.819Z,101549.88
2022-08-05T07:42:08.331Z,101554.38
2022-08-05T07:44:04.182Z,101560.25
2022-08-05T07:46:33.821Z,101559.84
2022-08-05T07:49:06.245Z,101555.75
2022-08-05T07:51:40.950Z,101567.81
2022-08-05T07:54:23.352Z,101559.53
2022-08-05T07:57:13.932Z,101552.94
2022-08-05T07:59:46.916Z,101554.66
2022-08-05T08:02:17.843Z,101554.78
2022-08-05T08:04:48.730Z,101551.38
2022-08-05T08:07:22.925Z,101560.94
2022-08-05T08:09:54.848Z,101564.75
2022-08-05T08:12:35.103Z,101568.16
2022-08-05T08:15:15.132Z,101555.59
2022-08-05T08:17:50.565Z,101561.69
2022-08-05T08:20:45.358Z,101552.22
2022-08-05T08:24:00.094Z,101552.78
2022-08-05T08:26:00.673Z,101555.41
2022-08-05T08:28:35.591Z,101554.50
2022-08-05T08:31:07.440Z,101559.28
2022-08-05T08:33:37.564Z,101565.13
2022-08-05T08:38:56.943Z,101576.88
2022-08-05T08:41:52.361Z,101580.06
2022-08-05T08:45:18.248Z,101580.78
2022-08-05T08:47:47.453Z,101583.38
2022-08-05T08:50:23.438Z,101586.72
2022-08-05T08:52:51.830Z,101584.41
2022-08-05T08:56:02.191Z,101587.13
2022-08-05T08:58:12.987Z,101585.56
2022-08-05T09:00:42.343Z,101591.06
2022-08-05T09:03:15.915Z,101592.03
2022-08-05T09:06:07.734Z,101598.25
2022-08-05T09:08:40.316Z,101602.94
2022-08-05T09:11:12.091Z,101614.41
2022-08-05T09:14:00.871Z,101616.28
2022-08-05T09:16:31.585Z,101619.63
2022-08-05T09:19:01.100Z,101612.16
2022-08-05T09:22:22.474Z,101620.25
2022-08-05T09:24:24.304Z,101634.41
2022-08-05T09:26:56.242Z,101641.38
2022-08-05T09:29:47.830Z,101636.47
2022-08-05T09:32:45.996Z,101635.03
2022-08-05T09:35:26.571Z,101629.38
2022-08-05T09:38:12.434Z,101628.44
2022-08-05T09:40:52.386Z,101628.28
2022-08-05T09:43:40.977Z,101624.97
2022-08-05T09:46:27.383Z,101629.50
2022-08-05T09:49:07.990Z,101633.41
2022-08-05T09:51:48.824Z,101638.34
2022-08-05T09:54:21.350Z,101634.53
2022-08-05T09:57:01.232Z,101637.19
2022-08-05T09:59:35.118Z,101630.19
2022-08-05T10:02:06.549Z,101631.03
2022-08-05T10:04:41.028Z,101636.88
2022-08-05T10:07:19.975Z,101629.84
2022-08-05T10:10:14.282Z,101640.34
2022-08-05T10:12:49.317Z,101645.03
2022-08-05T10:15:21.033Z,101646.38
2022-08-05T10:18:08.750Z,101641.28
2022-08-05T10:20:39.486Z,101642.59
2022-08-05T10:23:22.196Z,101656.22
2022-08-05T10:26:02.250Z,101647.81
2022-08-05T10:28:32.003Z,101649.28
2022-08-05T10:32:54.989Z,101643.91
2022-08-05T10:33:54.693Z,101649.66
2022-08-05T10:36:25.979Z,101662.47
2022-08-05T10:39:05.314Z,101665.88
2022-08-05T10:41:45.235Z,101670.09
2022-08-05T10:44:20.022Z,101672.41
2022-08-05T10:46:57.266Z,101673.50
2022-08-05T10:49:33.364Z,101672.28
2022-08-05T10:52:05.015Z,101671.31
2022-08-05T10:54:55.873Z,101676.00
2022-08-05T10:57:30.936Z,101676.44
2022-08-05T11:00:19.845Z,101683.72
2022-08-05T11:03:26.006Z,101677.00
2022-08-05T11:06:06.339Z,101684.22
2022-08-05T11:08:39.231Z,101680.56
2022-08-05T11:11:52.229Z,101688.44
2022-08-05T11:14:57.458Z,101683.38
2022-08-05T11:17:58.883Z,101694.44
2022-08-05T11:20:44.537Z,101711.25
2022-08-05T11:24:04.924Z,101706.31
2022-08-05T11:26:35.281Z,101704.63
2022-08-05T11:29:13.947Z,101709.88
2022-08-05T11:31:57.937Z,101703.69
2022-08-05T11:34:51.574Z,101704.91
2022-08-05T11:38:29.003Z,101720.00
2022-08-05T11:41:35.334Z,101715.94
2022-08-05T11:44:05.516Z,101716.59
2022-08-05T11:47:09.615Z,101719.56
2022-08-05T11:49:27.755Z,101718.41
2022-08-05T11:51:57.692Z,101726.84
2022-08-05T11:54:33.896Z,101728.53
2022-08-05T11:57:07.943Z,101742.34
2022-08-05T11:59:49.705Z,101745.44
2022-08-05T12:02:31.317Z,101746.47
2022-08-05T12:05:07.236Z,101753.47
2022-08-05T12:08:09.060Z,101757.81
2022-08-05T12:10:42.883Z,101755.66
2022-08-05T12:13:15.602Z,101761.63
2022-08-05T12:15:49.622Z,101767.06
2022-08-05T12:18:32.865Z,101768.06
2022-08-05T12:21:11.270Z,101766.69
2022-08-05T12:23:43.176Z,101772.03
2022-08-05T12:26:11.547Z,101773.13
2022-08-05T12:28:39.797Z,101783.91
2022-08-05T12:31:08.298Z,101782.97
2022-08-05T12:33:38.823Z,101790.09
2022-08-05T12:36:09.348Z,101791.41
2022-08-05T12:38:39.863Z,101790.09
2022-08-05T12:41:13.213Z,101787.09
2022-08-05T12:43:56.195Z,101786.38
2022-08-05T12:46:29.487Z,101791.25
2022-08-05T12:49:13.672Z,101799.81
2022-08-05T12:52:10.415Z,101811.28
2022-08-05T12:54:34.974Z,101803.50
2022-08-05T12:57:09.178Z,101811.25
2022-08-05T13:00:09.058Z,101812.84
2022-08-05T13:02:37.400Z,101815.63
2022-08-05T13:05:12.736Z,101827.53
2022-08-05T13:08:00.395Z,101830.66
2022-08-05T13:10:33.114Z,101841.22
2022-08-05T13:13:03.088Z,101842.09
2022-08-05T13:15:41.414Z,101840.44
2022-08-05T13:18:20.142Z,101840.03
2022-08-05T13:20:50.423Z,101837.75
2022-08-05T13:23:22.691Z,101845.97
2022-08-05T13:25:59.321Z,101838.31
2022-08-05T13:28:28.013Z,101842.94
2022-08-05T13:30:57.205Z,101840.59
2022-08-05T13:34:22.941Z,101830.13
2022-08-05T13:36:15.132Z,101835.16
2022-08-05T13:38:44.370Z,101851.94
2022-08-05T13:41:20.113Z,101848.19
2022-08-05T13:43:54.847Z,101848.00
2022-08-05T13:46:44.055Z,101856.41
2022-08-05T13:49:13.660Z,101853.69
2022-08-05T13:51:45.864Z,101856.97
2022-08-05T13:54:16.155Z,101869.84
2022-08-05T13:56:51.567Z,101860.53
2022-08-05T13:59:24.022Z,101874.16
2022-08-05T14:01:58.383Z,101867.19
2022-08-05T14:04:49.145Z,101878.25
2022-08-05T14:07:26.175Z,101867.84
2022-08-05T14:10:12.384Z,101880.41
2022-08-05T14:12:42.743Z,101882.88
2022-08-05T14:16:05.295Z,101877.94
2022-08-05T14:18:00.983Z,101884.50
2022-08-05T14:20:30.598Z,101883.25
2022-08-05T14:23:00.376Z,101889.69
2022-08-05T14:25:30.140Z,101894.25
2022-08-05T14:27:58.898Z,101903.41
2022-08-05T14:30:28.241Z,101908.56
2022-08-05T14:32:57.355Z,101913.06
2022-08-05T14:35:36.882Z,101917.72
2022-08-05T14:38:32.561Z,101906.63
2022-08-05T14:41:06.782Z,101918.34
2022-08-05T14:44:01.810Z,101920.06
2022-08-05T14:46:28.819Z,101920.81
2022-08-05T14:49:03.468Z,101916.69
2022-08-05T14:51:36.262Z,101913.03
2022-08-05T14:54:28.785Z,101916.81
2022-08-05T14:56:56.378Z,101928.31
2022-08-05T14:59:24.848Z,101928.91
2022-08-05T15:01:53.845Z,101926.97
2022-08-05T15:04:23.229Z,101933.94
2022-08-05T15:06:55.586Z,101936.44
2022-08-05T15:09:51.770Z,101934.22
2022-08-05T15:12:16.311Z,101927.63
2022-08-05T15:14:50.017Z,101932.34
2022-08-05T15:17:45.634Z,101934.25
2022-08-05T15:20:18.801Z,101940.34
2022-08-05T15:22:54.550Z,101939.59
2022-08-05T15:25:41.413Z,101937.94
2022-08-05T15:28:16.172Z,101927.69
2022-08-05T15:30:45.726Z,101931.69
2022-08-05T15:33:56.488Z,101923.38
2022-08-05T15:36:04.078Z,101936.38
2022-08-05T15:38:36.488Z,101938.34
2022-08-05T15:41:22.229Z,101934.28
2022-08-05T15:43:55.053Z,101933.91
2022-08-05T15:46:25.099Z,101937.00
2022-08-05T15:49:01.177Z,101942.53
2022-08-05T15:52:10.052Z,101937.75
2022-08-05T15:54:34.532Z,101938.34
2022-08-05T15:57:07.721Z,101935.16
2022-08-05T15:59:36.397Z,101940.22
2022-08-05T16:02:09.477Z,101938.19
2022-08-05T16:04:42.551Z,101944.13
2022-08-05T16:07:11.030Z,101951.53
2022-08-05T16:09:41.543Z,101953.41
2022-08-05T16:12:12.207Z,101958.22
2022-08-05T16:14:40.497Z,101962.00
2022-08-05T16:17:09.394Z,101948.22
2022-08-05T16:20:04.337Z,101955.09
2022-08-05T16:22:27.775Z,101951.94
2022-08-05T16:25:08.120Z,101962.66
2022-08-05T16:28:00.670Z,101962.00
2022-08-05T16:30:29.130Z,101971.81
2022-08-05T16:32:57.743Z,101971.34
2022-08-05T16:35:28.514Z,101978.41
2022-08-05T16:38:15.171Z,101973.47
2022-08-05T16:40:55.076Z,101987.63
2022-08-05T16:43:31.476Z,101991.34
2022-08-05T16:46:03.930Z,101987.47
2022-08-05T16:48:41.167Z,101993.59
2022-08-05T16:51:11.018Z,101986.44
2022-08-05T16:54:03.885Z,101992.88
2022-08-05T16:56:30.601Z,102004.28
2022-08-05T16:59:08.209Z,102001.03
2022-08-05T17:01:53.937Z,102006.56
2022-08-05T17:04:26.314Z,102004.63
2022-08-05T17:06:55.615Z,102006.63
2022-08-05T17:09:25.159Z,102012.91
2022-08-05T17:11:59.783Z,102014.94
2022-08-05T17:14:36.876Z,102020.13
2022-08-05T17:17:14.379Z,102015.06
2022-08-05T17:19:46.096Z,102018.28
2022-08-05T17:22:24.713Z,102024.84
2022-08-05T17:24:58.160Z,102017.59
2022-08-05T17:27:27.261Z,102020.78
2022-08-05T17:30:11.891Z,102029.84
2022-08-05T17:32:46.901Z,102026.31
2022-08-05T17:35:21.028Z,102031.00
2022-08-05T17:37:49.505Z,102041.28
2022-08-05T17:40:22.468Z,102039.44
2022-08-05T17:42:52.962Z,102045.81
2022-08-05T17:45:25.127Z,102050.16
2022-08-05T17:47:57.735Z,102048.19
2022-08-05T17:50:28.104Z,102059.06
2022-08-05T17:52:59.475Z,102059.34
2022-08-05T17:55:37.169Z,102065.63
2022-08-05T17:58:12.546Z,102060.88
2022-08-05T18:00:45.203Z,102067.81
2022-08-05T18:03:39.173Z,102075.44
2022-08-05T18:06:11.223Z,102087.13
2022-08-05T18:08:40.622Z,102086.16
2022-08-05T18:11:24.793Z,102094.16
2022-08-05T18:14:04.265Z,102095.72
2022-08-05T18:16:34.695Z,102100.34
2022-08-05T18:19:04.093Z,102102.38
2022-08-05T18:22:08.397Z,102104.13
2022-08-05T18:24:20.974Z,102103.69
2022-08-05T18:26:49.283Z,102119.44
2022-08-05T18:29:17.346Z,102118.00
2022-08-05T18:32:02.999Z,102114.75
2022-08-05T18:34:41.014Z,102118.06
2022-08-05T18:37:12.031Z,102124.81
2022-08-05T18:40:30.993Z,102132.88
2022-08-05T18:42:29.667Z,102136.38
2022-08-05T18:44:57.885Z,102134.06
2022-08-05T18:47:29.659Z,102138.31
2022-08-05T18:50:19.238Z,102134.88
2022-08-05T18:52:50.877Z,102140.88
2022-08-05T18:55:22.282Z,102141.03
2022-08-05T18:57:53.227Z,102148.81
2022-08-05T19:00:27.079Z,102145.03
2022-08-05T19:03:03.750Z,102155.47
2022-08-05T19:06:12.872Z,102155.16
2022-08-05T19:08:30.620Z,102156.25
2022-08-05T19:11:04.892Z,102156.81
2022-08-05T19:13:36.932Z,102170.13
2022-08-05T19:16:25.057Z,102171.47
2022-08-05T19:18:57.453Z,102172.81
2022-08-05T19:21:29.568Z,102177.19
2022-08-05T19:24:08.937Z,102184.22
2022-08-05T19:26:54.702Z,102181.41
2022-08-05T19:29:35.510Z,102186.03
2022-08-05T19:32:05.573Z,102194.59
2022-08-05T19:34:38.461Z,102204.53
2022-08-05T19:37:06.710Z,102204.38
2022-08-05T19:39:46.000Z,102207.66
2022-08-05T19:42:35.736Z,102207.84
2022-08-05T19:45:05.902Z,102214.56
2022-08-05T19:47:37.599Z,102228.59
2022-08-05T19:50:10.571Z,102222.34
2022-08-05T19:52:41.156Z,102230.06
2022-08-05T19:56:14.915Z,102229.00
2022-08-05T19:58:04.067Z,102234.34
2022-08-05T20:00:42.751Z,102240.50
2022-08-05T20:03:11.105Z,102243.88
2022-08-05T20:05:50.198Z,102232.28
2022-08-05T20:08:19.857Z,102237.41
2022-08-05T20:10:49.547Z,102248.69
2022-08-05T20:13:18.465Z,102239.22
2022-08-05T20:16:06.816Z,102241.28
2022-08-05T20:18:36.162Z,102250.91
2022-08-05T20:21:07.204Z,102255.19
2022-08-05T20:23:40.738Z,102255.69
2022-08-05T20:26:19.756Z,102258.72
2022-08-05T20:28:50.612Z,102263.84
2022-08-05T20:31:21.665Z,102267.34
2022-08-05T20:33:51.874Z,102267.56
2022-08-05T20:36:24.074Z,102267.81
2022-08-05T20:38:54.022Z,102275.03
2022-08-05T20:41:44.420Z,102287.25
2022-08-05T20:44:17.641Z,102288.25
2022-08-05T20:46:48.306Z,102292.38
2022-08-05T20:49:18.439Z,102287.38
2022-08-05T20:51:54.576Z,102293.38
2022-08-05T20:54:22.856Z,102292.06
2022-08-05T20:56:53.094Z,102293.81
2022-08-05T20:59:27.131Z,102291.09
2022-08-05T21:02:09.656Z,102299.28
2022-08-05T21:04:39.079Z,102307.56
2022-08-05T21:07:09.150Z,102301.28
2022-08-05T21:09:37.254Z,102315.94
2022-08-05T21:12:19.815Z,102308.78
2022-08-05T21:14:48.026Z,102310.41
2022-08-05T21:17:16.461Z,102303.59
2022-08-05T21:19:48.066Z,102316.31
2022-08-05T21:22:21.894Z,102305.06
2022-08-05T21:24:52.512Z,102318.72
2022-08-05T21:27:24.656Z,102315.72
2022-08-05T21:29:55.520Z,102316.88
2022-08-05T21:32:26.805Z,102322.50
2022-08-05T21:34:56.045Z,102324.28
2022-08-05T21:37:52.683Z,102319.41
2022-08-05T21:40:21.953Z,102329.25
2022-08-05T21:42:52.079Z,102325.88
2022-08-05T21:45:24.439Z,102332.44
2022-08-05T21:47:57.780Z,102336.72
2022-08-05T21:50:27.282Z,102339.16
2022-08-05T21:52:59.040Z,102335.53
2022-08-05T21:56:00.793Z,102337.16
2022-08-05T21:58:30.660Z,102335.97
2022-08-05T22:01:00.890Z,102331.84
2022-08-05T22:03:52.560Z,102339.91
2022-08-05T22:06:22.578Z,102340.78
2022-08-05T22:08:53.515Z,102335.84
2022-08-05T22:11:34.966Z,102339.53
2022-08-05T22:14:32.517Z,102347.50
2022-08-05T22:16:56.970Z,102351.09
2022-08-05T22:20:01.964Z,102350.25
2022-08-05T22:22:16.044Z,102349.03
2022-08-05T22:25:03.258Z,102349.59
2022-08-05T22:28:08.858Z,102348.66
2022-08-05T22:30:35.130Z,102358.41
2022-08-05T22:33:04.181Z,102360.69
2022-08-05T22:35:48.961Z,102360.19
2022-08-05T22:38:18.995Z,102352.81
2022-08-05T22:40:55.010Z,102359.44
2022-08-05T22:43:36.689Z,102355.06
2022-08-05T22:46:13.255Z,102360.75
2022-08-05T22:48:51.803Z,102361.88
2022-08-05T22:51:23.239Z,102368.72
2022-08-05T22:54:08.011Z,102372.50
2022-08-05T22:56:39.838Z,102379.00
2022-08-05T22:59:45.082Z,102380.78
2022-08-05T23:02:05.998Z,102379.25
2022-08-05T23:04:36.447Z,102380.78
2022-08-05T23:07:06.920Z,102382.78
2022-08-05T23:09:58.281Z,102388.44
2022-08-05T23:12:24.973Z,102388.94
2022-08-05T23:14:54.496Z,102391.78
2022-08-05T23:17:34.637Z,102392.34
2022-08-05T23:20:16.384Z,102389.97
2022-08-05T23:22:47.623Z,102385.88
2022-08-05T23:25:52.523Z,102389.94
2022-08-05T23:28:07.968Z,102390.69
2022-08-05T23:30:39.711Z,102402.59
2022-08-05T23:33:16.198Z,102406.44
2022-08-05T23:35:51.147Z,102404.72
2022-08-05T23:38:19.575Z,102405.56
2022-08-05T23:40:50.175Z,102413.44
2022-08-05T23:43:25.554Z,102413.59
2022-08-05T23:46:21.196Z,102414.88
2022-08-05T23:48:59.300Z,102406.69
2022-08-05T23:51:54.825Z,102412.06
2022-08-05T23:54:26.121Z,102421.78
2022-08-05T23:57:03.417Z,102420.88
